sensor_id;sensor_type;location;lat;lon;timestamp;P1;durP1;ratioP1;P2;durP2;ratioP2
62790;SDS011;48830;53.426;10.300;2022-08-07T00:01:09;11.02;;;7.65;;
62790;SDS011;48830;53.426;10.300;2022-08-07T00:03:35;12.15;;;7.82;;
62790;SDS011;48830;53.426;10.300;2022-08-07T00:06:01;11.73;;;7.57;;
62790;SDS011;48830;53.426;10.300;2022-08-07T00:08:27;12.15;;;7.68;;
62790;SDS011;48830;53.426;10.300;2022-08-07T00:10:52;12.60;;;7.47;;
62790;SDS011;48830;53.426;10.300;2022-08-07T00:13:19;11.93;;;7.88;;
62790;SDS011;48830;53.426;10.300;2022-08-07T00:15:46;12.50;;;8.48;;
62790;SDS011;48830;53.426;10.300;2022-08-07T00:18:16;12.05;;;8.05;;
62790;SDS011;48830;53.426;10.300;2022-08-07T00:20:43;11.60;;;7.65;;
62790;SDS011;48830;53.426;10.300;2022-08-07T00:23:08;11.20;;;7.68;;
62790;SDS011;48830;53.426;10.300;2022-08-07T00:25:34;12.27;;;7.97;;
62790;SDS011;48830;53.426;10.300;2022-08-07T00:28:00;11.75;;;7.85;;
62790;SDS011;48830;53.426;10.300;2022-08-07T00:30:27;13.27;;;8.25;;
62790;SDS011;48830;53.426;10.300;2022-08-07T00:32:53;12.50;;;8.50;;
62790;SDS011;48830;53.426;10.300;2022-08-07T00:35:20;13.18;;;8.70;;
62790;SDS011;48830;53.426;10.300;2022-08-07T00:37:45;14.73;;;8.82;;
62790;SDS011;48830;53.426;10.300;2022-08-07T00:40:12;13.52;;;8.13;;
62790;SDS011;48830;53.426;10.300;2022-08-07T00:42:38;14.32;;;8.15;;
62790;SDS011;48830;53.426;10.300;2022-08-07T00:45:06;12.20;;;8.73;;
62790;SDS011;48830;53.426;10.300;2022-08-07T00:47:32;14.30;;;9.02;;
62790;SDS011;48830;53.426;10.300;2022-08-07T00:49:58;11.45;;;8.00;;
62790;SDS011;48830;53.426;10.300;2022-08-07T00:52:24;20.17;;;8.82;;
62790;SDS011;48830;53.426;10.300;2022-08-07T00:54:50;13.55;;;8.52;;
62790;SDS011;48830;53.426;10.300;2022-08-07T00:57:16;12.77;;;8.40;;
62790;SDS011;48830;53.426;10.300;2022-08-07T00:59:42;14.38;;;8.77;;
62790;SDS011;48830;53.426;10.300;2022-08-07T01:02:08;12.95;;;8.10;;
62790;SDS011;48830;53.426;10.300;2022-08-07T01:04:35;13.70;;;8.95;;
62790;SDS011;48830;53.426;10.300;2022-08-07T01:07:02;12.18;;;8.27;;
62790;SDS011;48830;53.426;10.300;2022-08-07T01:09:28;11.27;;;8.02;;
62790;SDS011;48830;53.426;10.300;2022-08-07T01:11:54;12.68;;;7.82;;
62790;SDS011;48830;53.426;10.300;2022-08-07T01:14:21;16.60;;;9.18;;
62790;SDS011;48830;53.426;10.300;2022-08-07T01:16:48;13.32;;;8.30;;
62790;SDS011;48830;53.426;10.300;2022-08-07T01:19:16;13.65;;;8.50;;
62790;SDS011;48830;53.426;10.300;2022-08-07T01:21:43;12.23;;;8.05;;
62790;SDS011;48830;53.426;10.300;2022-08-07T01:24:10;11.00;;;8.20;;
62790;SDS011;48830;53.426;10.300;2022-08-07T01:26:36;13.02;;;8.05;;
62790;SDS011;48830;53.426;10.300;2022-08-07T01:29:02;11.60;;;7.60;;
62790;SDS011;48830;53.426;10.300;2022-08-07T01:31:30;12.27;;;8.05;;
62790;SDS011;48830;53.426;10.300;2022-08-07T01:33:58;12.25;;;7.90;;
62790;SDS011;48830;53.426;10.300;2022-08-07T01:36:29;13.45;;;8.43;;
62790;SDS011;48830;53.426;10.300;2022-08-07T01:38:57;12.73;;;7.97;;
62790;SDS011;48830;53.426;10.300;2022-08-07T01:41:23;13.32;;;7.95;;
62790;SDS011;48830;53.426;10.300;2022-08-07T01:43:50;10.88;;;8.20;;
62790;SDS011;48830;53.426;10.300;2022-08-07T01:46:18;13.50;;;8.20;;
62790;SDS011;48830;53.426;10.300;2022-08-07T01:48:45;12.77;;;8.50;;
62790;SDS011;48830;53.426;10.300;2022-08-07T01:51:19;12.23;;;8.65;;
62790;SDS011;48830;53.426;10.300;2022-08-07T01:53:48;12.90;;;8.43;;
62790;SDS011;48830;53.426;10.300;2022-08-07T01:58:57;14.13;;;9.30;;
62790;SDS011;48830;53.426;10.300;2022-08-07T02:01:32;15.18;;;9.15;;
62790;SDS011;48830;53.426;10.300;2022-08-07T02:04:02;13.48;;;9.07;;
62790;SDS011;48830;53.426;10.300;2022-08-07T02:06:35;15.35;;;8.82;;
62790;SDS011;48830;53.426;10.300;2022-08-07T02:09:05;14.93;;;9.73;;
62790;SDS011;48830;53.426;10.300;2022-08-07T02:11:35;15.45;;;10.05;;
62790;SDS011;48830;53.426;10.300;2022-08-07T02:14:07;13.77;;;9.07;;
62790;SDS011;48830;53.426;10.300;2022-08-07T02:16:35;13.52;;;9.43;;
62790;SDS011;48830;53.426;10.300;2022-08-07T02:19:03;13.38;;;9.15;;
62790;SDS011;48830;53.426;10.300;2022-08-07T02:21:33;15.07;;;9.27;;
62790;SDS011;48830;53.426;10.300;2022-08-07T02:24:02;14.93;;;9.10;;
62790;SDS011;48830;53.426;10.300;2022-08-07T02:26:29;13.45;;;9.02;;
62790;SDS011;48830;53.426;10.300;2022-08-07T02:28:57;15.13;;;9.00;;
62790;SDS011;48830;53.426;10.300;2022-08-07T02:31:23;14.25;;;9.23;;
62790;SDS011;48830;53.426;10.300;2022-08-07T02:33:50;15.07;;;9.50;;
62790;SDS011;48830;53.426;10.300;2022-08-07T02:36:21;14.50;;;9.50;;
62790;SDS011;48830;53.426;10.300;2022-08-07T02:38:47;16.08;;;8.95;;
62790;SDS011;48830;53.426;10.300;2022-08-07T02:41:15;12.45;;;8.07;;
62790;SDS011;48830;53.426;10.300;2022-08-07T02:43:43;13.45;;;8.77;;
62790;SDS011;48830;53.426;10.300;2022-08-07T02:46:13;13.65;;;9.00;;
62790;SDS011;48830;53.426;10.300;2022-08-07T02:48:42;13.75;;;9.25;;
62790;SDS011;48830;53.426;10.300;2022-08-07T02:51:09;13.65;;;8.40;;
62790;SDS011;48830;53.426;10.300;2022-08-07T02:53:37;13.82;;;8.98;;
62790;SDS011;48830;53.426;10.300;2022-08-07T02:56:07;13.43;;;8.90;;
62790;SDS011;48830;53.426;10.300;2022-08-07T02:58:35;13.35;;;8.77;;
62790;SDS011;48830;53.426;10.300;2022-08-07T03:01:04;17.60;;;9.50;;
62790;SDS011;48830;53.426;10.300;2022-08-07T03:03:33;14.35;;;9.43;;
62790;SDS011;48830;53.426;10.300;2022-08-07T03:06:01;12.90;;;8.65;;
62790;SDS011;48830;53.426;10.300;2022-08-07T03:08:27;12.98;;;9.00;;
62790;SDS011;48830;53.426;10.300;2022-08-07T03:10:53;13.85;;;8.68;;
62790;SDS011;48830;53.426;10.300;2022-08-07T03:13:25;14.05;;;8.80;;
62790;SDS011;48830;53.426;10.300;2022-08-07T03:15:52;14.32;;;8.20;;
62790;SDS011;48830;53.426;10.300;2022-08-07T03:18:19;13.73;;;8.85;;
62790;SDS011;48830;53.426;10.300;2022-08-07T03:20:47;13.55;;;8.60;;
62790;SDS011;48830;53.426;10.300;2022-08-07T03:23:13;12.98;;;8.82;;
62790;SDS011;48830;53.426;10.300;2022-08-07T03:25:40;12.63;;;8.35;;
62790;SDS011;48830;53.426;10.300;2022-08-07T03:28:09;13.73;;;8.48;;
62790;SDS011;48830;53.426;10.300;2022-08-07T03:30:37;14.88;;;8.93;;
62790;SDS011;48830;53.426;10.300;2022-08-07T03:33:05;13.20;;;8.50;;
62790;SDS011;48830;53.426;10.300;2022-08-07T03:35:33;14.77;;;8.68;;
62790;SDS011;48830;53.426;10.300;2022-08-07T03:38:02;13.48;;;8.82;;
62790;SDS011;48830;53.426;10.300;2022-08-07T03:40:30;13.57;;;8.75;;
62790;SDS011;48830;53.426;10.300;2022-08-07T03:42:59;14.73;;;9.55;;
62790;SDS011;48830;53.426;10.300;2022-08-07T03:45:27;13.32;;;8.63;;
62790;SDS011;48830;53.426;10.300;2022-08-07T03:47:56;14.65;;;9.18;;
62790;SDS011;48830;53.426;10.300;2022-08-07T03:50:24;15.10;;;9.60;;
62790;SDS011;48830;53.426;10.300;2022-08-07T03:52:53;14.85;;;9.02;;
62790;SDS011;48830;53.426;10.300;2022-08-07T03:55:22;12.90;;;8.68;;
62790;SDS011;48830;53.426;10.300;2022-08-07T03:57:47;12.65;;;8.70;;
62790;SDS011;48830;53.426;10.300;2022-08-07T04:00:14;14.13;;;8.55;;
62790;SDS011;48830;53.426;10.300;2022-08-07T04:02:41;13.05;;;8.85;;
62790;SDS011;48830;53.426;10.300;2022-08-07T04:05:11;12.85;;;8.40;;
62790;SDS011;48830;53.426;10.300;2022-08-07T04:07:42;12.43;;;8.43;;
62790;SDS011;48830;53.426;10.300;2022-08-07T04:10:09;11.95;;;7.65;;
62790;SDS011;48830;53.426;10.300;2022-08-07T04:12:35;12.30;;;8.23;;
62790;SDS011;48830;53.426;10.300;2022-08-07T04:15:01;12.25;;;8.27;;
62790;SDS011;48830;53.426;10.300;2022-08-07T04:17:30;13.85;;;8.38;;
62790;SDS011;48830;53.426;10.300;2022-08-07T04:19:56;15.43;;;8.18;;
62790;SDS011;48830;53.426;10.300;2022-08-07T04:22:24;11.98;;;8.13;;
62790;SDS011;48830;53.426;10.300;2022-08-07T04:24:51;13.32;;;8.05;;
62790;SDS011;48830;53.426;10.300;2022-08-07T04:27:17;11.60;;;7.75;;
62790;SDS011;48830;53.426;10.300;2022-08-07T04:29:43;12.35;;;7.80;;
62790;SDS011;48830;53.426;10.300;2022-08-07T04:32:09;12.88;;;8.70;;
62790;SDS011;48830;53.426;10.300;2022-08-07T04:34:36;11.85;;;8.30;;
62790;SDS011;48830;53.426;10.300;2022-08-07T04:37:02;13.63;;;8.30;;
62790;SDS011;48830;53.426;10.300;2022-08-07T04:39:29;13.77;;;8.35;;
62790;SDS011;48830;53.426;10.300;2022-08-07T04:41:55;14.98;;;8.93;;
62790;SDS011;48830;53.426;10.300;2022-08-07T04:44:22;13.32;;;8.85;;
62790;SDS011;48830;53.426;10.300;2022-08-07T05:01:03;13.90;;;9.07;;
62790;SDS011;48830;53.426;10.300;2022-08-07T05:06:24;13.20;;;8.32;;
62790;SDS011;48830;53.426;10.300;2022-08-07T05:09:02;12.23;;;8.15;;
62790;SDS011;48830;53.426;10.300;2022-08-07T05:11:44;15.43;;;7.85;;
62790;SDS011;48830;53.426;10.300;2022-08-07T05:14:16;13.10;;;8.10;;
62790;SDS011;48830;53.426;10.300;2022-08-07T05:16:45;14.27;;;8.20;;
62790;SDS011;48830;53.426;10.300;2022-08-07T05:19:16;12.55;;;8.25;;
62790;SDS011;48830;53.426;10.300;2022-08-07T05:21:48;11.65;;;8.05;;
62790;SDS011;48830;53.426;10.300;2022-08-07T05:24:18;12.60;;;8.68;;
62790;SDS011;48830;53.426;10.300;2022-08-07T05:26:48;15.18;;;9.00;;
62790;SDS011;48830;53.426;10.300;2022-08-07T05:29:19;11.23;;;7.47;;
62790;SDS011;48830;53.426;10.300;2022-08-07T05:31:47;12.57;;;8.55;;
62790;SDS011;48830;53.426;10.300;2022-08-07T05:34:17;14.02;;;8.93;;
62790;SDS011;48830;53.426;10.300;2022-08-07T05:36:45;13.30;;;8.95;;
62790;SDS011;48830;53.426;10.300;2022-08-07T05:39:20;12.02;;;8.57;;
62790;SDS011;48830;53.426;10.300;2022-08-07T05:41:48;13.65;;;8.85;;
62790;SDS011;48830;53.426;10.300;2022-08-07T05:44:19;13.57;;;9.20;;
62790;SDS011;48830;53.426;10.300;2022-08-07T05:46:49;12.48;;;8.27;;
62790;SDS011;48830;53.426;10.300;2022-08-07T05:49:18;12.63;;;8.25;;
62790;SDS011;48830;53.426;10.300;2022-08-07T05:51:46;14.77;;;8.90;;
62790;SDS011;48830;53.426;10.300;2022-08-07T05:54:15;14.18;;;8.23;;
62790;SDS011;48830;53.426;10.300;2022-08-07T05:56:41;14.45;;;9.10;;
62790;SDS011;48830;53.426;10.300;2022-08-07T05:59:15;13.65;;;9.02;;
62790;SDS011;48830;53.426;10.300;2022-08-07T06:01:46;13.80;;;8.60;;
62790;SDS011;48830;53.426;10.300;2022-08-07T06:04:15;13.02;;;8.95;;
62790;SDS011;48830;53.426;10.300;2022-08-07T06:06:44;12.98;;;8.52;;
62790;SDS011;48830;53.426;10.300;2022-08-07T06:09:09;14.90;;;9.05;;
62790;SDS011;48830;53.426;10.300;2022-08-07T06:11:42;14.18;;;9.10;;
62790;SDS011;48830;53.426;10.300;2022-08-07T06:14:09;14.05;;;9.20;;
62790;SDS011;48830;53.426;10.300;2022-08-07T06:16:35;14.27;;;9.00;;
62790;SDS011;48830;53.426;10.300;2022-08-07T06:19:03;12.13;;;8.52;;
62790;SDS011;48830;53.426;10.300;2022-08-07T06:21:31;14.35;;;9.38;;
62790;SDS011;48830;53.426;10.300;2022-08-07T06:23:57;14.15;;;8.88;;
62790;SDS011;48830;53.426;10.300;2022-08-07T06:26:24;14.73;;;9.40;;
62790;SDS011;48830;53.426;10.300;2022-08-07T06:28:51;14.82;;;9.02;;
62790;SDS011;48830;53.426;10.300;2022-08-07T06:31:18;12.15;;;8.55;;
62790;SDS011;48830;53.426;10.300;2022-08-07T06:33:44;14.02;;;8.93;;
62790;SDS011;48830;53.426;10.300;2022-08-07T06:36:11;15.50;;;9.48;;
62790;SDS011;48830;53.426;10.300;2022-08-07T06:38:41;13.20;;;8.50;;
62790;SDS011;48830;53.426;10.300;2022-08-07T06:41:10;12.20;;;8.57;;
62790;SDS011;48830;53.426;10.300;2022-08-07T06:43:42;14.63;;;8.95;;
62790;SDS011;48830;53.426;10.300;2022-08-07T06:46:12;12.82;;;8.02;;
62790;SDS011;48830;53.426;10.300;2022-08-07T06:48:39;11.68;;;8.18;;
62790;SDS011;48830;53.426;10.300;2022-08-07T06:51:06;11.73;;;7.75;;
62790;SDS011;48830;53.426;10.300;2022-08-07T06:53:35;11.13;;;7.07;;
62790;SDS011;48830;53.426;10.300;2022-08-07T06:56:04;12.43;;;6.85;;
62790;SDS011;48830;53.426;10.300;2022-08-07T06:58:34;9.48;;;6.00;;
62790;SDS011;48830;53.426;10.300;2022-08-07T07:01:05;10.27;;;5.60;;
62790;SDS011;48830;53.426;10.300;2022-08-07T07:03:33;7.72;;;5.13;;
62790;SDS011;48830;53.426;10.300;2022-08-07T07:06:00;10.68;;;5.50;;
62790;SDS011;48830;53.426;10.300;2022-08-07T07:08:26;8.07;;;5.20;;
62790;SDS011;48830;53.426;10.300;2022-08-07T07:10:53;8.35;;;5.00;;
62790;SDS011;48830;53.426;10.300;2022-08-07T07:13:27;8.27;;;4.53;;
62790;SDS011;48830;53.426;10.300;2022-08-07T07:15:57;9.63;;;5.20;;
62790;SDS011;48830;53.426;10.300;2022-08-07T07:18:30;7.78;;;4.20;;
62790;SDS011;48830;53.426;10.300;2022-08-07T07:21:09;7.13;;;4.30;;
62790;SDS011;48830;53.426;10.300;2022-08-07T07:23:55;10.25;;;5.20;;
62790;SDS011;48830;53.426;10.300;2022-08-07T07:26:21;8.07;;;4.35;;
62790;SDS011;48830;53.426;10.300;2022-08-07T07:28:51;9.35;;;3.85;;
62790;SDS011;48830;53.426;10.300;2022-08-07T07:31:28;8.48;;;4.00;;
62790;SDS011;48830;53.426;10.300;2022-08-07T07:34:00;5.55;;;3.30;;
62790;SDS011;48830;53.426;10.300;2022-08-07T07:36:29;9.23;;;4.20;;
62790;SDS011;48830;53.426;10.300;2022-08-07T07:38:57;6.13;;;3.35;;
62790;SDS011;48830;53.426;10.300;2022-08-07T07:41:26;7.20;;;3.80;;
62790;SDS011;48830;53.426;10.300;2022-08-07T07:43:53;6.45;;;4.00;;
62790;SDS011;48830;53.426;10.300;2022-08-07T07:46:20;6.00;;;3.78;;
62790;SDS011;48830;53.426;10.300;2022-08-07T07:48:49;6.20;;;3.80;;
62790;SDS011;48830;53.426;10.300;2022-08-07T07:51:17;7.50;;;4.18;;
62790;SDS011;48830;53.426;10.300;2022-08-07T07:53:44;7.15;;;3.60;;
62790;SDS011;48830;53.426;10.300;2022-08-07T07:56:11;6.47;;;3.20;;
62790;SDS011;48830;53.426;10.300;2022-08-07T07:58:39;7.60;;;3.60;;
62790;SDS011;48830;53.426;10.300;2022-08-07T08:01:06;6.07;;;3.30;;
62790;SDS011;48830;53.426;10.300;2022-08-07T08:03:34;6.85;;;3.55;;
62790;SDS011;48830;53.426;10.300;2022-08-07T08:06:02;6.30;;;3.58;;
62790;SDS011;48830;53.426;10.300;2022-08-07T08:08:29;7.72;;;3.65;;
62790;SDS011;48830;53.426;10.300;2022-08-07T08:10:56;6.55;;;3.65;;
62790;SDS011;48830;53.426;10.300;2022-08-07T08:13:23;5.82;;;3.83;;
62790;SDS011;48830;53.426;10.300;2022-08-07T08:15:51;6.72;;;3.40;;
62790;SDS011;48830;53.426;10.300;2022-08-07T08:18:18;5.90;;;3.35;;
62790;SDS011;48830;53.426;10.300;2022-08-07T08:20:45;6.78;;;3.67;;
62790;SDS011;48830;53.426;10.300;2022-08-07T08:23:12;7.22;;;3.65;;
62790;SDS011;48830;53.426;10.300;2022-08-07T08:25:59;7.10;;;3.38;;
62790;SDS011;48830;53.426;10.300;2022-08-07T08:28:51;6.15;;;3.33;;
62790;SDS011;48830;53.426;10.300;2022-08-07T08:31:25;6.32;;;3.38;;
62790;SDS011;48830;53.426;10.300;2022-08-07T08:33:57;6.95;;;3.78;;
62790;SDS011;48830;53.426;10.300;2022-08-07T08:36:26;6.97;;;3.38;;
62790;SDS011;48830;53.426;10.300;2022-08-07T08:38:54;5.60;;;3.25;;
62790;SDS011;48830;53.426;10.300;2022-08-07T08:46:41;6.32;;;3.35;;
62790;SDS011;48830;53.426;10.300;2022-08-07T08:49:19;5.45;;;3.30;;
62790;SDS011;48830;53.426;10.300;2022-08-07T08:54:57;5.53;;;3.40;;
62790;SDS011;48830;53.426;10.300;2022-08-07T08:57:41;5.30;;;3.72;;
62790;SDS011;48830;53.426;10.300;2022-08-07T09:00:13;5.53;;;3.38;;
62790;SDS011;48830;53.426;10.300;2022-08-07T09:14:13;6.43;;;3.30;;
62790;SDS011;48830;53.426;10.300;2022-08-07T09:16:59;5.93;;;3.67;;
62790;SDS011;48830;53.426;10.300;2022-08-07T09:25:48;6.47;;;3.60;;
62790;SDS011;48830;53.426;10.300;2022-08-07T09:28:30;5.38;;;3.10;;
62790;SDS011;48830;53.426;10.300;2022-08-07T09:31:07;5.05;;;3.53;;
62790;SDS011;48830;53.426;10.300;2022-08-07T09:36:47;5.63;;;3.70;;
62790;SDS011;48830;53.426;10.300;2022-08-07T09:39:57;5.50;;;3.53;;
62790;SDS011;48830;53.426;10.300;2022-08-07T09:45:31;4.93;;;3.40;;
62790;SDS011;48830;53.426;10.300;2022-08-07T09:51:14;5.43;;;3.53;;
62790;SDS011;48830;53.426;10.300;2022-08-07T09:53:54;6.35;;;4.15;;
62790;SDS011;48830;53.426;10.300;2022-08-07T09:59:19;6.53;;;4.07;;
62790;SDS011;48830;53.426;10.300;2022-08-07T10:07:52;6.57;;;3.90;;
62790;SDS011;48830;53.426;10.300;2022-08-07T10:10:35;7.05;;;3.78;;
62790;SDS011;48830;53.426;10.300;2022-08-07T10:15:53;7.93;;;4.03;;
62790;SDS011;48830;53.426;10.300;2022-08-07T10:21:29;6.47;;;3.70;;
62790;SDS011;48830;53.426;10.300;2022-08-07T10:30:02;5.50;;;3.47;;
62790;SDS011;48830;53.426;10.300;2022-08-07T10:40:39;5.97;;;3.50;;
62790;SDS011;48830;53.426;10.300;2022-08-07T10:46:07;6.47;;;4.13;;
62790;SDS011;48830;53.426;10.300;2022-08-07T10:51:37;5.63;;;3.60;;
62790;SDS011;48830;53.426;10.300;2022-08-07T10:57:14;6.20;;;3.67;;
62790;SDS011;48830;53.426;10.300;2022-08-07T11:00:08;5.95;;;4.10;;
62790;SDS011;48830;53.426;10.300;2022-08-07T11:02:40;5.40;;;3.30;;
62790;SDS011;48830;53.426;10.300;2022-08-07T11:10:49;6.28;;;3.10;;
62790;SDS011;48830;53.426;10.300;2022-08-07T11:13:23;5.07;;;3.00;;
62790;SDS011;48830;53.426;10.300;2022-08-07T11:16:16;5.35;;;3.30;;
62790;SDS011;48830;53.426;10.300;2022-08-07T11:18:58;5.35;;;3.00;;
62790;SDS011;48830;53.426;10.300;2022-08-07T11:21:36;4.65;;;3.15;;
62790;SDS011;48830;53.426;10.300;2022-08-07T11:24:04;5.10;;;3.20;;
62790;SDS011;48830;53.426;10.300;2022-08-07T11:26:46;4.97;;;3.10;;
62790;SDS011;48830;53.426;10.300;2022-08-07T11:29:20;5.25;;;3.38;;
62790;SDS011;48830;53.426;10.300;2022-08-07T11:32:03;6.13;;;3.50;;
62790;SDS011;48830;53.426;10.300;2022-08-07T11:34:52;7.05;;;3.55;;
62790;SDS011;48830;53.426;10.300;2022-08-07T11:42:46;6.95;;;3.60;;
62790;SDS011;48830;53.426;10.300;2022-08-07T11:53:51;6.05;;;3.00;;
62790;SDS011;48830;53.426;10.300;2022-08-07T11:56:46;5.80;;;3.15;;
62790;SDS011;48830;53.426;10.300;2022-08-07T11:59:26;5.53;;;3.22;;
62790;SDS011;48830;53.426;10.300;2022-08-07T12:07:54;5.57;;;3.00;;
62790;SDS011;48830;53.426;10.300;2022-08-07T12:10:27;5.68;;;3.30;;
62790;SDS011;48830;53.426;10.300;2022-08-07T12:13:38;6.60;;;3.55;;
62790;SDS011;48830;53.426;10.300;2022-08-07T12:16:27;4.60;;;3.05;;
62790;SDS011;48830;53.426;10.300;2022-08-07T12:19:11;5.13;;;3.20;;
62790;SDS011;48830;53.426;10.300;2022-08-07T12:24:40;5.03;;;3.45;;
62790;SDS011;48830;53.426;10.300;2022-08-07T12:27:36;6.95;;;3.85;;
62790;SDS011;48830;53.426;10.300;2022-08-07T12:30:08;5.38;;;3.40;;
62790;SDS011;48830;53.426;10.300;2022-08-07T12:32:41;5.05;;;3.05;;
62790;SDS011;48830;53.426;10.300;2022-08-07T12:35:22;6.88;;;3.55;;
62790;SDS011;48830;53.426;10.300;2022-08-07T12:37:49;5.78;;;3.38;;
62790;SDS011;48830;53.426;10.300;2022-08-07T12:40:19;5.18;;;3.30;;
62790;SDS011;48830;53.426;10.300;2022-08-07T12:42:50;5.85;;;3.40;;
62790;SDS011;48830;53.426;10.300;2022-08-07T12:45:21;4.65;;;2.90;;
62790;SDS011;48830;53.426;10.300;2022-08-07T12:48:06;5.25;;;3.20;;
62790;SDS011;48830;53.426;10.300;2022-08-07T12:53:22;7.63;;;3.83;;
62790;SDS011;48830;53.426;10.300;2022-08-07T12:56:08;5.30;;;3.58;;
62790;SDS011;48830;53.426;10.300;2022-08-07T12:58:41;6.15;;;3.63;;
62790;SDS011;48830;53.426;10.300;2022-08-07T13:09:53;5.43;;;3.70;;
62790;SDS011;48830;53.426;10.300;2022-08-07T13:20:37;6.22;;;3.75;;
62790;SDS011;48830;53.426;10.300;2022-08-07T13:23:09;5.75;;;3.50;;
62790;SDS011;48830;53.426;10.300;2022-08-07T13:25:45;6.95;;;4.05;;
62790;SDS011;48830;53.426;10.300;2022-08-07T13:28:18;5.95;;;3.40;;
62790;SDS011;48830;53.426;10.300;2022-08-07T13:31:02;6.32;;;3.28;;
62790;SDS011;48830;53.426;10.300;2022-08-07T13:33:37;4.85;;;3.10;;
62790;SDS011;48830;53.426;10.300;2022-08-07T13:36:28;6.00;;;3.22;;
62790;SDS011;48830;53.426;10.300;2022-08-07T13:39:06;6.47;;;3.67;;
62790;SDS011;48830;53.426;10.300;2022-08-07T13:42:10;5.88;;;3.67;;
62790;SDS011;48830;53.426;10.300;2022-08-07T13:44:34;6.30;;;3.53;;
62790;SDS011;48830;53.426;10.300;2022-08-07T13:47:02;6.28;;;3.30;;
62790;SDS011;48830;53.426;10.300;2022-08-07T13:49:34;6.55;;;3.28;;
62790;SDS011;48830;53.426;10.300;2022-08-07T13:52:06;6.15;;;3.63;;
62790;SDS011;48830;53.426;10.300;2022-08-07T13:54:33;7.60;;;3.80;;
62790;SDS011;48830;53.426;10.300;2022-08-07T13:57:01;6.45;;;3.40;;
62790;SDS011;48830;53.426;10.300;2022-08-07T13:59:35;5.70;;;3.50;;
62790;SDS011;48830;53.426;10.300;2022-08-07T14:02:08;5.18;;;3.42;;
62790;SDS011;48830;53.426;10.300;2022-08-07T14:04:43;4.75;;;2.95;;
62790;SDS011;48830;53.426;10.300;2022-08-07T14:07:10;5.72;;;3.03;;
62790;SDS011;48830;53.426;10.300;2022-08-07T14:09:37;5.63;;;3.33;;
62790;SDS011;48830;53.426;10.300;2022-08-07T14:12:06;5.95;;;3.10;;
62790;SDS011;48830;53.426;10.300;2022-08-07T14:14:41;5.38;;;3.50;;
62790;SDS011;48830;53.426;10.300;2022-08-07T14:17:09;6.25;;;3.53;;
62790;SDS011;48830;53.426;10.300;2022-08-07T14:19:43;5.35;;;3.10;;
62790;SDS011;48830;53.426;10.300;2022-08-07T14:22:17;5.40;;;3.25;;
62790;SDS011;48830;53.426;10.300;2022-08-07T14:24:47;5.57;;;3.13;;
62790;SDS011;48830;53.426;10.300;2022-08-07T14:27:15;7.20;;;3.20;;
62790;SDS011;48830;53.426;10.300;2022-08-07T14:29:52;5.55;;;3.38;;
62790;SDS011;48830;53.426;10.300;2022-08-07T14:32:22;5.03;;;3.20;;
62790;SDS011;48830;53.426;10.300;2022-08-07T14:34:50;8.43;;;3.40;;
62790;SDS011;48830;53.426;10.300;2022-08-07T14:37:18;6.90;;;3.35;;
62790;SDS011;48830;53.426;10.300;2022-08-07T14:39:46;7.32;;;3.53;;
62790;SDS011;48830;53.426;10.300;2022-08-07T14:42:13;5.07;;;3.30;;
62790;SDS011;48830;53.426;10.300;2022-08-07T14:44:50;6.13;;;3.33;;
62790;SDS011;48830;53.426;10.300;2022-08-07T14:47:19;5.72;;;3.05;;
62790;SDS011;48830;53.426;10.300;2022-08-07T14:49:47;5.82;;;3.60;;
62790;SDS011;48830;53.426;10.300;2022-08-07T14:52:14;7.32;;;3.50;;
62790;SDS011;48830;53.426;10.300;2022-08-07T14:54:40;5.30;;;3.65;;
62790;SDS011;48830;53.426;10.300;2022-08-07T14:57:11;4.60;;;2.95;;
62790;SDS011;48830;53.426;10.300;2022-08-07T14:59:38;5.32;;;3.15;;
62790;SDS011;48830;53.426;10.300;2022-08-07T15:02:09;5.28;;;3.00;;
62790;SDS011;48830;53.426;10.300;2022-08-07T15:04:46;5.18;;;3.22;;
62790;SDS011;48830;53.426;10.300;2022-08-07T15:07:16;5.75;;;3.05;;
62790;SDS011;48830;53.426;10.300;2022-08-07T15:09:46;6.32;;;3.22;;
62790;SDS011;48830;53.426;10.300;2022-08-07T15:12:17;5.72;;;3.30;;
62790;SDS011;48830;53.426;10.300;2022-08-07T15:14:49;5.38;;;3.40;;
62790;SDS011;48830;53.426;10.300;2022-08-07T15:17:18;4.70;;;3.15;;
62790;SDS011;48830;53.426;10.300;2022-08-07T15:19:48;4.72;;;2.72;;
62790;SDS011;48830;53.426;10.300;2022-08-07T15:22:17;6.57;;;3.33;;
62790;SDS011;48830;53.426;10.300;2022-08-07T15:24:46;5.43;;;3.15;;
62790;SDS011;48830;53.426;10.300;2022-08-07T15:27:24;6.25;;;3.58;;
62790;SDS011;48830;53.426;10.300;2022-08-07T15:29:52;5.93;;;3.25;;
62790;SDS011;48830;53.426;10.300;2022-08-07T15:32:19;5.03;;;2.80;;
62790;SDS011;48830;53.426;10.300;2022-08-07T15:34:51;6.15;;;3.13;;
62790;SDS011;48830;53.426;10.300;2022-08-07T15:37:28;5.40;;;3.22;;
62790;SDS011;48830;53.426;10.300;2022-08-07T15:39:57;5.95;;;3.55;;
62790;SDS011;48830;53.426;10.300;2022-08-07T15:45:12;5.55;;;3.25;;
62790;SDS011;48830;53.426;10.300;2022-08-07T15:47:39;5.38;;;3.13;;
62790;SDS011;48830;53.426;10.300;2022-08-07T15:50:13;6.10;;;3.55;;
62790;SDS011;48830;53.426;10.300;2022-08-07T15:52:41;5.13;;;3.13;;
62790;SDS011;48830;53.426;10.300;2022-08-07T15:55:09;6.00;;;3.30;;
62790;SDS011;48830;53.426;10.300;2022-08-07T15:57:36;5.45;;;3.30;;
62790;SDS011;48830;53.426;10.300;2022-08-07T16:00:03;6.00;;;3.80;;
62790;SDS011;48830;53.426;10.300;2022-08-07T16:02:31;6.88;;;3.40;;
62790;SDS011;48830;53.426;10.300;2022-08-07T16:05:11;6.03;;;3.85;;
62790;SDS011;48830;53.426;10.300;2022-08-07T16:07:41;4.88;;;3.10;;
62790;SDS011;48830;53.426;10.300;2022-08-07T16:10:11;7.22;;;3.75;;
62790;SDS011;48830;53.426;10.300;2022-08-07T16:16:07;5.93;;;3.35;;
62790;SDS011;48830;53.426;10.300;2022-08-07T16:24:30;5.57;;;3.28;;
62790;SDS011;48830;53.426;10.300;2022-08-07T16:27:27;5.63;;;3.30;;
62790;SDS011;48830;53.426;10.300;2022-08-07T16:30:05;6.03;;;3.47;;
62790;SDS011;48830;53.426;10.300;2022-08-07T16:32:32;4.97;;;3.28;;
62790;SDS011;48830;53.426;10.300;2022-08-07T16:51:39;6.28;;;3.45;;
62790;SDS011;48830;53.426;10.300;2022-08-07T17:00:02;6.57;;;4.28;;
62790;SDS011;48830;53.426;10.300;2022-08-07T17:08:16;5.60;;;3.30;;
62790;SDS011;48830;53.426;10.300;2022-08-07T17:10:56;5.00;;;3.08;;
62790;SDS011;48830;53.426;10.300;2022-08-07T17:21:23;7.95;;;3.70;;
62790;SDS011;48830;53.426;10.300;2022-08-07T17:29:17;12.07;;;6.15;;
62790;SDS011;48830;53.426;10.300;2022-08-07T17:31:52;8.75;;;3.70;;
62790;SDS011;48830;53.426;10.300;2022-08-07T17:34:33;7.43;;;4.28;;
62790;SDS011;48830;53.426;10.300;2022-08-07T17:37:02;5.97;;;3.42;;
62790;SDS011;48830;53.426;10.300;2022-08-07T17:39:35;5.38;;;2.80;;
62790;SDS011;48830;53.426;10.300;2022-08-07T17:42:04;6.13;;;3.10;;
62790;SDS011;48830;53.426;10.300;2022-08-07T17:47:12;5.93;;;3.13;;
62790;SDS011;48830;53.426;10.300;2022-08-07T17:49:53;6.38;;;3.35;;
62790;SDS011;48830;53.426;10.300;2022-08-07T17:55:03;5.75;;;3.47;;
62790;SDS011;48830;53.426;10.300;2022-08-07T17:57:49;6.13;;;3.70;;
62790;SDS011;48830;53.426;10.300;2022-08-07T18:00:26;6.82;;;3.38;;
62790;SDS011;48830;53.426;10.300;2022-08-07T18:03:00;5.55;;;3.50;;
62790;SDS011;48830;53.426;10.300;2022-08-07T18:08:24;6.60;;;4.05;;
62790;SDS011;48830;53.426;10.300;2022-08-07T18:11:07;6.07;;;3.88;;
62790;SDS011;48830;53.426;10.300;2022-08-07T18:18:47;8.30;;;3.92;;